Time;durP1;ratioP1;P1;durP2;ratioP2;P2;SDS_P1;SDS_P2;PMS_P1;PMS_P2;Temp;Humidity;BMP_temperature;BMP_pressure;BME280_temperature;BME280_humidity;BME280_pressure;Samples;Min_cycle;Max_cycle;Signal;HPM_P1;HPM_P2
2023/09/28 00:00:59;;;;;;;14.00;9.80;;;;;;;;;;5092030;28;20028;-64
2023/09/28 00:03:25;;;;;;;14.77;10.85;;;;;;;;;;5092473;28;20016;-64
2023/09/28 00:05:51;;;;;;;14.15;10.32;;;;;;;;;;5092637;28;20147;-64
2023/09/28 00:08:17;;;;;;;15.13;10.80;;;;;;;;;;5092469;28;20153;-64
2023/09/28 00:10:43;;;;;;;14.10;10.10;;;;;;;;;;5092172;28;20096;-68
2023/09/28 00:13:09;;;;;;;14.65;9.90;;;;;;;;;;5092174;28;20027;-63
2023/09/28 00:15:35;;;;;;;14.20;10.40;;;;;;;;;;5092300;28;20099;-63
2023/09/28 00:18:02;;;;;;;14.25;10.40;;;;;;;;;;5092156;28;20508;-63
2023/09/28 00:20:28;;;;;;;17.45;11.52;;;;;;;;;;5091995;28;20023;-63
2023/09/28 00:22:55;;;;;;;14.20;10.40;;;;;;;;;;5092154;28;20386;-63
2023/09/28 00:25:22;;;;;;;14.85;10.40;;;;;;;;;;5091988;28;20024;-64
2023/09/28 00:27:58;;;;;;;14.20;10.40;;;;;;;;;;5092096;28;20044;-63
2023/09/28 00:30:26;;;;;;;15.05;10.93;;;;;;;;;;5091873;28;20281;-64
2023/09/28 00:32:58;;;;;;;14.30;10.30;;;;;;;;;;5092059;28;20085;-62
2023/09/28 00:35:26;;;;;;;16.20;11.60;;;;;;;;;;5092003;28;20322;-63
2023/09/28 00:37:52;;;;;;;14.20;10.38;;;;;;;;;;5092035;28;20110;-63
2023/09/28 00:40:19;;;;;;;14.30;10.50;;;;;;;;;;5091615;28;20111;-63
2023/09/28 00:42:46;;;;;;;14.80;10.80;;;;;;;;;;5091850;28;20024;-63
2023/09/28 00:45:13;;;;;;;14.40;11.05;;;;;;;;;;5073668;28;20031;-62
2023/09/28 00:47:39;;;;;;;13.95;9.75;;;;;;;;;;5091704;28;20367;-62
2023/09/28 00:50:14;;;;;;;14.30;10.35;;;;;;;;;;5091537;28;20028;-60
2023/09/28 00:53:00;;;;;;;14.30;10.30;;;;;;;;;;5091673;28;20036;-63
2023/09/28 00:55:30;;;;;;;14.23;10.57;;;;;;;;;;5091274;28;20092;-63
2023/09/28 00:58:00;;;;;;;14.60;10.85;;;;;;;;;;5091438;28;20024;-63
2023/09/28 01:00:28;;;;;;;14.20;10.40;;;;;;;;;;5090929;28;20073;-64
2023/09/28 01:02:58;;;;;;;15.13;11.18;;;;;;;;;;5091436;28;20039;-62
2023/09/28 01:05:31;;;;;;;14.18;10.18;;;;;;;;;;5091248;28;20099;-64
2023/09/28 01:08:08;;;;;;;14.27;10.63;;;;;;;;;;5091176;28;20076;-64
2023/09/28 01:10:38;;;;;;;14.30;10.55;;;;;;;;;;5090910;28;20076;-60
2023/09/28 01:13:11;;;;;;;29.88;11.73;;;;;;;;;;5091046;28;20161;-63
2023/09/28 01:15:38;;;;;;;14.30;10.45;;;;;;;;;;5091221;28;20477;-63
2023/09/28 01:18:05;;;;;;;14.50;11.15;;;;;;;;;;5073086;28;20028;-63
2023/09/28 01:20:35;;;;;;;14.23;10.40;;;;;;;;;;5091046;28;20032;-62
2023/09/28 01:23:02;;;;;;;16.00;11.70;;;;;;;;;;5090857;28;20020;-62
2023/09/28 01:25:28;;;;;;;14.43;10.50;;;;;;;;;;5090933;28;20020;-65
2023/09/28 01:27:54;;;;;;;15.73;10.55;;;;;;;;;;5090982;28;20023;-64
2023/09/28 01:30:20;;;;;;;14.30;10.50;;;;;;;;;;5090608;28;20028;-63
2023/09/28 01:32:46;;;;;;;14.60;10.85;;;;;;;;;;5090940;28;20564;-63
2023/09/28 01:35:12;;;;;;;14.30;10.50;;;;;;;;;;5090707;28;20115;-63
2023/09/28 01:37:50;;;;;;;14.15;10.20;;;;;;;;;;5090918;28;20055;-63
2023/09/28 01:40:16;;;;;;;15.10;11.57;;;;;;;;;;5090508;28;20028;-64
2023/09/28 01:42:43;;;;;;;14.55;10.65;;;;;;;;;;5090277;28;20073;-63
2023/09/28 01:45:09;;;;;;;15.05;11.30;;;;;;;;;;5090521;28;20436;-63
2023/09/28 01:47:35;;;;;;;14.75;11.43;;;;;;;;;;5090545;28;20031;-63
2023/09/28 01:50:03;;;;;;;16.27;11.70;;;;;;;;;;5090659;28;20020;-64
2023/09/28 01:52:29;;;;;;;14.30;10.60;;;;;;;;;;5090917;28;20534;-63
2023/09/28 01:54:55;;;;;;;14.30;10.57;;;;;;;;;;5090693;28;20020;-64
2023/09/28 01:57:21;;;;;;;14.40;10.90;;;;;;;;;;5090584;28;20477;-63
2023/09/28 01:59:47;;;;;;;14.40;10.98;;;;;;;;;;5090716;28;20027;-62
2023/09/28 02:02:15;;;;;;;14.55;11.15;;;;;;;;;;5090593;28;20437;-63
2023/09/28 02:04:41;;;;;;;14.35;10.63;;;;;;;;;;5090797;28;20550;-61
2023/09/28 02:07:07;;;;;;;14.40;10.90;;;;;;;;;;5090686;28;20035;-63
2023/09/28 02:09:33;;;;;;;14.50;11.10;;;;;;;;;;5090657;28;20354;-63
2023/09/28 02:11:59;;;;;;;14.40;11.10;;;;;;;;;;5090345;28;20028;-63
2023/09/28 02:14:25;;;;;;;14.48;11.25;;;;;;;;;;5090267;28;20031;-64
2023/09/28 02:16:51;;;;;;;15.15;12.07;;;;;;;;;;5090638;28;20047;-63
2023/09/28 02:19:17;;;;;;;15.07;11.32;;;;;;;;;;5090307;28;20495;-63
2023/09/28 02:21:43;;;;;;;14.32;10.80;;;;;;;;;;5071779;28;20107;-64
2023/09/28 02:24:10;;;;;;;14.80;11.18;;;;;;;;;;5090118;28;20030;-63
2023/09/28 02:26:36;;;;;;;14.30;10.50;;;;;;;;;;5090050;28;20024;-64
2023/09/28 02:29:02;;;;;;;14.32;10.65;;;;;;;;;;5090061;28;20020;-64
2023/09/28 02:31:28;;;;;;;16.08;11.10;;;;;;;;;;5071825;28;20024;-64
2023/09/28 02:33:55;;;;;;;14.80;11.30;;;;;;;;;;5090027;28;20553;-63
2023/09/28 02:36:21;;;;;;;14.32;10.73;;;;;;;;;;5090144;28;20495;-63
2023/09/28 02:38:48;;;;;;;14.43;10.88;;;;;;;;;;5090006;28;20039;-64
2023/09/28 02:41:20;;;;;;;14.75;11.32;;;;;;;;;;5089561;28;20063;-63
2023/09/28 02:43:47;;;;;;;14.60;11.00;;;;;;;;;;5089813;28;20046;-62
2023/09/28 02:46:13;;;;;;;15.18;11.55;;;;;;;;;;5090057;28;20099;-63
2023/09/28 02:48:40;;;;;;;14.63;11.27;;;;;;;;;;5089968;28;20070;-63
2023/09/28 02:51:07;;;;;;;14.27;10.63;;;;;;;;;;5089539;28;20154;-64
2023/09/28 02:53:35;;;;;;;18.13;11.25;;;;;;;;;;5089751;28;20024;-64
2023/09/28 02:56:01;;;;;;;15.43;12.27;;;;;;;;;;5092339;28;20047;-62
2023/09/28 02:58:27;;;;;;;14.40;10.88;;;;;;;;;;5093764;28;20040;-64
2023/09/28 03:00:53;;;;;;;14.70;11.60;;;;;;;;;;5093414;28;20627;-63
2023/09/28 03:03:19;;;;;;;14.38;10.70;;;;;;;;;;5075279;28;20363;-64
2023/09/28 03:05:46;;;;;;;14.88;11.20;;;;;;;;;;5093697;28;20023;-62
2023/09/28 03:08:14;;;;;;;14.30;10.50;;;;;;;;;;5093595;28;20044;-64
2023/09/28 03:10:43;;;;;;;14.82;10.90;;;;;;;;;;5093292;28;20024;-63
2023/09/28 03:13:09;;;;;;;14.43;10.73;;;;;;;;;;5075281;28;20046;-63
2023/09/28 03:15:35;;;;;;;14.50;10.63;;;;;;;;;;5093569;28;20020;-63
2023/09/28 03:18:02;;;;;;;15.00;11.05;;;;;;;;;;5093525;28;20448;-62
2023/09/28 03:20:31;;;;;;;14.90;10.63;;;;;;;;;;5093035;28;20060;-64
2023/09/28 03:22:57;;;;;;;14.50;10.88;;;;;;;;;;5093340;28;20021;-63
2023/09/28 03:25:24;;;;;;;14.60;10.63;;;;;;;;;;5093107;28;20036;-63
2023/09/28 03:27:51;;;;;;;16.25;11.50;;;;;;;;;;5093329;28;20072;-62
2023/09/28 03:30:18;;;;;;;14.30;10.45;;;;;;;;;;5093123;28;20449;-62
2023/09/28 03:32:46;;;;;;;14.60;11.23;;;;;;;;;;5093135;28;20122;-65
2023/09/28 03:35:12;;;;;;;15.07;11.90;;;;;;;;;;5074968;28;20375;-64
2023/09/28 03:37:40;;;;;;;14.80;11.60;;;;;;;;;;5093624;28;20039;-62
2023/09/28 03:40:12;;;;;;;15.25;11.52;;;;;;;;;;5092933;28;20102;-63
2023/09/28 03:42:42;;;;;;;14.40;10.80;;;;;;;;;;5093201;28;20024;-64
2023/09/28 03:45:09;;;;;;;14.35;10.80;;;;;;;;;;5093041;28;20016;-63
2023/09/28 03:47:40;;;;;;;14.88;11.93;;;;;;;;;;5093355;28;20042;-63
2023/09/28 03:50:06;;;;;;;15.32;11.73;;;;;;;;;;5092586;28;20017;-63
2023/09/28 03:52:34;;;;;;;14.80;11.40;;;;;;;;;;5092734;28;20077;-64
2023/09/28 03:55:00;;;;;;;14.40;10.77;;;;;;;;;;5092670;28;20028;-63
2023/09/28 03:57:26;;;;;;;14.93;11.30;;;;;;;;;;5092692;28;20020;-64
2023/09/28 03:59:52;;;;;;;14.35;10.70;;;;;;;;;;5092415;28;20478;-59
2023/09/28 04:02:18;;;;;;;14.50;11.00;;;;;;;;;;5092555;28;20055;-64
2023/09/28 04:04:44;;;;;;;16.08;11.43;;;;;;;;;;5092477;28;20055;-64
2023/09/28 04:07:11;;;;;;;15.10;11.50;;;;;;;;;;5091954;28;20024;-64
2023/09/28 04:09:37;;;;;;;16.42;12.45;;;;;;;;;;5092396;28;20073;-64
2023/09/28 04:12:03;;;;;;;14.40;10.90;;;;;;;;;;5092151;28;20496;-64
2023/09/28 04:14:29;;;;;;;14.38;10.80;;;;;;;;;;5092238;28;20020;-66
2023/09/28 04:16:55;;;;;;;15.48;12.02;;;;;;;;;;5092212;28;20031;-64
2023/09/28 04:19:21;;;;;;;14.70;11.48;;;;;;;;;;5092067;28;20021;-64
2023/09/28 04:21:47;;;;;;;14.77;10.95;;;;;;;;;;5092430;28;20609;-64
2023/09/28 04:24:13;;;;;;;14.70;11.10;;;;;;;;;;5073968;28;20032;-63
2023/09/28 04:26:40;;;;;;;15.05;10.98;;;;;;;;;;5092416;28;20016;-62
2023/09/28 04:29:06;;;;;;;14.63;11.35;;;;;;;;;;5092023;28;20020;-63
2023/09/28 04:31:32;;;;;;;15.05;11.85;;;;;;;;;;5091562;28;20035;-62
2023/09/28 04:33:58;;;;;;;14.50;11.00;;;;;;;;;;5073647;28;20036;-61
2023/09/28 04:36:24;;;;;;;14.43;11.00;;;;;;;;;;5091699;28;20051;-62
2023/09/28 04:38:50;;;;;;;14.52;10.93;;;;;;;;;;5073685;28;20028;-64
2023/09/28 04:41:17;;;;;;;16.02;11.85;;;;;;;;;;5091390;28;20059;-63
2023/09/28 04:43:43;;;;;;;14.77;11.30;;;;;;;;;;5091709;28;20048;-63
2023/09/28 04:46:09;;;;;;;15.02;11.65;;;;;;;;;;5091742;28;20168;-62
2023/09/28 04:48:35;;;;;;;14.70;11.10;;;;;;;;;;5091268;28;20032;-62
2023/09/28 04:51:03;;;;;;;15.95;12.45;;;;;;;;;;5090853;28;20401;-60
2023/09/28 04:53:29;;;;;;;15.40;12.05;;;;;;;;;;5091436;28;20027;-62
2023/09/28 04:55:55;;;;;;;14.50;11.10;;;;;;;;;;5091635;28;20374;-62
2023/09/28 04:58:21;;;;;;;14.60;11.20;;;;;;;;;;5072851;28;20028;-63
2023/09/28 05:00:47;;;;;;;14.32;10.70;;;;;;;;;;5090783;28;20024;-63
2023/09/28 05:03:13;;;;;;;14.82;10.88;;;;;;;;;;5072723;28;20472;-62
2023/09/28 05:05:39;;;;;;;15.30;11.75;;;;;;;;;;5090972;28;20023;-63
2023/09/28 05:08:05;;;;;;;14.30;10.60;;;;;;;;;;5091302;28;20024;-62
2023/09/28 05:10:31;;;;;;;15.20;11.68;;;;;;;;;;5090747;28;20024;-64
2023/09/28 05:12:58;;;;;;;14.35;10.80;;;;;;;;;;5090937;28;20478;-59
2023/09/28 05:15:24;;;;;;;14.80;11.55;;;;;;;;;;5090861;28;20055;-61
2023/09/28 05:17:50;;;;;;;14.50;11.05;;;;;;;;;;5089726;28;20114;-63
2023/09/28 05:20:16;;;;;;;14.45;11.05;;;;;;;;;;5090436;28;20060;-62
2023/09/28 05:22:43;;;;;;;15.00;11.60;;;;;;;;;;5090633;28;20024;-63
2023/09/28 05:25:09;;;;;;;14.40;10.90;;;;;;;;;;5091145;28;20032;-63
2023/09/28 05:27:35;;;;;;;14.90;11.50;;;;;;;;;;5090622;28;20085;-63
2023/09/28 05:30:02;;;;;;;14.90;11.57;;;;;;;;;;5090719;28;20054;-64
2023/09/28 05:32:28;;;;;;;14.50;11.13;;;;;;;;;;5090408;28;20020;-59
2023/09/28 05:34:54;;;;;;;14.73;11.30;;;;;;;;;;5087082;28;20035;-59
2023/09/28 05:37:20;;;;;;;15.02;11.18;;;;;;;;;;5078768;28;20383;-62
2023/09/28 05:39:46;;;;;;;16.35;12.20;;;;;;;;;;5080260;28;20078;-63
2023/09/28 05:42:12;;;;;;;14.90;11.20;;;;;;;;;;5090154;28;20035;-64
2023/09/28 05:44:38;;;;;;;14.50;11.10;;;;;;;;;;5074355;28;20024;-64
2023/09/28 05:47:04;;;;;;;14.45;11.00;;;;;;;;;;5070225;28;20028;-63
2023/09/28 05:49:30;;;;;;;15.02;11.35;;;;;;;;;;5070377;28;20029;-63
2023/09/28 05:51:56;;;;;;;15.23;11.45;;;;;;;;;;5074780;28;20091;-63
2023/09/28 05:54:22;;;;;;;14.45;11.00;;;;;;;;;;5090069;28;20385;-61
2023/09/28 05:56:49;;;;;;;14.35;10.65;;;;;;;;;;5072013;28;20211;-63
2023/09/28 05:59:15;;;;;;;14.73;11.32;;;;;;;;;;5090083;28;20027;-63
2023/09/28 06:01:41;;;;;;;14.68;11.63;;;;;;;;;;5090121;28;20031;-59
2023/09/28 06:04:08;;;;;;;14.35;10.95;;;;;;;;;;5090730;28;20024;-62
2023/09/28 06:06:34;;;;;;;14.90;11.10;;;;;;;;;;5071994;28;20027;-63
2023/09/28 06:09:00;;;;;;;14.65;11.15;;;;;;;;;;5085632;28;20059;-64
2023/09/28 06:11:27;;;;;;;14.60;11.52;;;;;;;;;;5051858;28;20056;-63
2023/09/28 06:13:53;;;;;;;14.52;10.95;;;;;;;;;;5070179;28;20024;-62
2023/09/28 06:16:19;;;;;;;14.68;10.35;;;;;;;;;;5052035;28;20394;-63
2023/09/28 06:18:46;;;;;;;14.30;10.73;;;;;;;;;;5069937;28;20028;-62
2023/09/28 06:21:12;;;;;;;14.50;10.60;;;;;;;;;;5069543;28;20443;-63
2023/09/28 06:23:38;;;;;;;14.50;11.10;;;;;;;;;;5069694;28;20032;-61
2023/09/28 06:26:04;;;;;;;14.45;10.70;;;;;;;;;;5069618;28;20021;-63
2023/09/28 06:28:30;;;;;;;16.45;10.90;;;;;;;;;;5069704;28;20537;-63
2023/09/28 06:30:58;;;;;;;14.60;10.93;;;;;;;;;;5073209;28;20151;-61
2023/09/28 06:33:25;;;;;;;15.57;11.68;;;;;;;;;;5073964;28;20103;-63
2023/09/28 06:35:51;;;;;;;14.20;10.13;;;;;;;;;;5077245;28;20078;-63
2023/09/28 06:38:18;;;;;;;14.40;10.77;;;;;;;;;;5094274;28;20036;-63
2023/09/28 06:40:48;;;;;;;14.48;10.82;;;;;;;;;;5093491;28;20024;-63
2023/09/28 06:43:14;;;;;;;15.93;11.65;;;;;;;;;;5093741;28;20488;-61
2023/09/28 06:45:41;;;;;;;14.38;10.77;;;;;;;;;;5093391;28;20019;-61
2023/09/28 06:48:07;;;;;;;14.40;10.75;;;;;;;;;;5093763;28;20084;-62
2023/09/28 06:50:33;;;;;;;14.80;11.48;;;;;;;;;;5093649;28;20494;-61
2023/09/28 06:52:59;;;;;;;14.70;11.20;;;;;;;;;;5075483;28;20027;-63
2023/09/28 06:55:25;;;;;;;14.75;11.20;;;;;;;;;;5093327;28;20390;-62
2023/09/28 06:57:51;;;;;;;14.43;10.88;;;;;;;;;;5093643;28;20031;-63
2023/09/28 07:00:18;;;;;;;15.07;12.15;;;;;;;;;;5093522;28;20031;-61
2023/09/28 07:02:47;;;;;;;14.45;11.00;;;;;;;;;;5093617;28;20020;-63
2023/09/28 07:05:16;;;;;;;14.60;11.00;;;;;;;;;;5074976;28;20027;-62
2023/09/28 07:07:43;;;;;;;14.90;11.73;;;;;;;;;;5093416;28;20392;-63
2023/09/28 07:10:12;;;;;;;14.43;11.00;;;;;;;;;;5087947;28;20020;-63
2023/09/28 07:12:38;;;;;;;14.35;10.77;;;;;;;;;;5073328;28;20556;-64
2023/09/28 07:15:06;;;;;;;18.42;11.27;;;;;;;;;;5055174;28;20070;-62
2023/09/28 07:17:33;;;;;;;14.30;10.50;;;;;;;;;;5073400;28;20048;-64
2023/09/28 07:19:59;;;;;;;15.02;11.82;;;;;;;;;;5072870;28;20025;-62
2023/09/28 07:22:25;;;;;;;14.80;10.80;;;;;;;;;;5072930;28;20078;-59
2023/09/28 07:24:51;;;;;;;14.23;10.30;;;;;;;;;;5072886;28;20486;-63
2023/09/28 07:27:17;;;;;;;14.32;10.73;;;;;;;;;;5073022;28;20029;-64
2023/09/28 07:29:43;;;;;;;15.63;11.32;;;;;;;;;;5072787;28;20021;-64
2023/09/28 07:32:10;;;;;;;15.05;11.38;;;;;;;;;;5072661;28;20029;-61
2023/09/28 07:34:36;;;;;;;14.90;11.30;;;;;;;;;;5054786;28;20068;-63
2023/09/28 07:37:03;;;;;;;14.50;11.10;;;;;;;;;;5063092;28;20104;-61
2023/09/28 07:39:29;;;;;;;15.25;11.63;;;;;;;;;;5092654;28;20046;-65
2023/09/28 07:41:55;;;;;;;14.48;11.00;;;;;;;;;;5091591;28;20032;-61
2023/09/28 07:44:21;;;;;;;15.40;11.40;;;;;;;;;;5092516;28;20039;-60
2023/09/28 07:46:48;;;;;;;14.40;10.60;;;;;;;;;;5074288;28;20549;-59
2023/09/28 07:49:14;;;;;;;14.63;11.35;;;;;;;;;;5092483;28;20022;-55
2023/09/28 07:51:40;;;;;;;14.60;11.40;;;;;;;;;;5092661;28;20107;-56
2023/09/28 07:54:06;;;;;;;14.50;11.30;;;;;;;;;;5092341;28;20128;-57
2023/09/28 07:56:32;;;;;;;14.70;11.32;;;;;;;;;;5092217;28;20105;-56
2023/09/28 07:58:59;;;;;;;14.80;11.88;;;;;;;;;;5092403;28;20063;-58
2023/09/28 08:01:26;;;;;;;15.65;11.85;;;;;;;;;;5091930;28;20032;-61
2023/09/28 08:03:52;;;;;;;15.63;11.75;;;;;;;;;;5092325;28;20016;-56
2023/09/28 08:06:19;;;;;;;15.98;11.98;;;;;;;;;;5074085;28;20024;-60
2023/09/28 08:08:45;;;;;;;24.45;12.75;;;;;;;;;;5092368;28;20028;-60
2023/09/28 08:11:12;;;;;;;15.60;11.40;;;;;;;;;;5092034;28;20074;-62
2023/09/28 08:13:38;;;;;;;14.68;11.30;;;;;;;;;;5092073;28;20024;-56
2023/09/28 08:16:04;;;;;;;14.60;11.40;;;;;;;;;;5092018;28;20035;-58
2023/09/28 08:18:30;;;;;;;15.15;12.25;;;;;;;;;;5092156;28;20031;-54
2023/09/28 08:20:57;;;;;;;15.93;11.15;;;;;;;;;;5091835;28;20028;-59
2023/09/28 08:23:23;;;;;;;18.60;12.50;;;;;;;;;;5091884;28;20094;-57
2023/09/28 08:25:49;;;;;;;14.45;10.90;;;;;;;;;;5091889;28;20020;-60
2023/09/28 08:28:15;;;;;;;14.80;11.45;;;;;;;;;;5091870;28;20016;-60
2023/09/28 08:30:41;;;;;;;14.77;11.40;;;;;;;;;;5091584;28;20039;-58
2023/09/28 08:33:08;;;;;;;14.88;11.50;;;;;;;;;;5085211;28;20175;-58
2023/09/28 08:35:36;;;;;;;14.60;11.40;;;;;;;;;;5091459;28;20153;-56
2023/09/28 08:38:03;;;;;;;14.93;12.00;;;;;;;;;;5091396;28;20099;-51
2023/09/28 08:40:30;;;;;;;15.30;12.50;;;;;;;;;;5091250;28;20034;-57
2023/09/28 08:42:57;;;;;;;19.20;13.85;;;;;;;;;;5079429;28;20019;-57
2023/09/28 08:45:23;;;;;;;14.80;11.82;;;;;;;;;;5063241;28;20016;-60
2023/09/28 08:47:50;;;;;;;14.95;11.00;;;;;;;;;;5082212;28;20008;-56
2023/09/28 08:50:20;;;;;;;14.60;11.40;;;;;;;;;;5079068;28;20051;-58
2023/09/28 08:52:46;;;;;;;14.90;11.73;;;;;;;;;;5080096;28;20073;-58
2023/09/28 08:55:13;;;;;;;15.35;11.30;;;;;;;;;;5090895;28;20090;-52
2023/09/28 08:57:40;;;;;;;14.45;10.85;;;;;;;;;;5091213;28;20016;-61
2023/09/28 09:00:13;;;;;;;14.27;10.65;;;;;;;;;;5090775;28;20435;-57
2023/09/28 09:02:39;;;;;;;15.10;11.70;;;;;;;;;;5091129;28;20099;-60
2023/09/28 09:05:06;;;;;;;15.70;11.30;;;;;;;;;;5091376;28;20035;-60
2023/09/28 09:07:32;;;;;;;14.50;11.02;;;;;;;;;;5073049;28;20367;-64
2023/09/28 09:09:59;;;;;;;14.45;11.02;;;;;;;;;;5090580;28;20024;-53
2023/09/28 09:12:25;;;;;;;14.50;11.00;;;;;;;;;;5090828;28;20024;-54
2023/09/28 09:14:51;;;;;;;14.38;10.88;;;;;;;;;;5090650;28;20512;-54
2023/09/28 09:17:17;;;;;;;14.98;11.20;;;;;;;;;;5072582;28;20035;-53
2023/09/28 09:19:43;;;;;;;14.88;11.38;;;;;;;;;;5090563;28;20032;-52
2023/09/28 09:22:25;;;;;;;14.80;11.80;;;;;;;;;;5090662;28;20486;-54
2023/09/28 09:24:58;;;;;;;14.90;11.80;;;;;;;;;;5090428;28;20112;-51
2023/09/28 09:27:28;;;;;;;15.32;12.18;;;;;;;;;;5090725;28;20107;-54
2023/09/28 09:30:14;;;;;;;14.80;11.50;;;;;;;;;;5090817;28;20020;-52
2023/09/28 09:32:42;;;;;;;15.00;12.10;;;;;;;;;;5090780;28;20500;-48
2023/09/28 09:35:09;;;;;;;14.70;11.65;;;;;;;;;;5090960;28;20027;-59
2023/09/28 09:37:35;;;;;;;14.75;11.70;;;;;;;;;;5072033;28;20516;-59
2023/09/28 09:40:15;;;;;;;15.45;12.20;;;;;;;;;;5090329;28;20031;-59
2023/09/28 09:42:41;;;;;;;14.80;12.02;;;;;;;;;;5090311;28;20115;-56
2023/09/28 09:45:08;;;;;;;15.13;12.32;;;;;;;;;;5090202;28;20081;-55
2023/09/28 09:47:35;;;;;;;14.80;11.57;;;;;;;;;;5090276;28;20527;-51
2023/09/28 09:50:01;;;;;;;15.13;12.40;;;;;;;;;;5090076;28;20020;-53
2023/09/28 09:52:29;;;;;;;14.70;11.60;;;;;;;;;;5071997;28;20408;-55
2023/09/28 09:54:56;;;;;;;14.50;11.10;;;;;;;;;;5090098;28;20481;-52
2023/09/28 09:57:24;;;;;;;14.98;12.00;;;;;;;;;;5090131;28;20380;-55
2023/09/28 09:59:53;;;;;;;14.43;11.02;;;;;;;;;;5089515;28;20080;-54
2023/09/28 10:02:23;;;;;;;14.65;11.57;;;;;;;;;;5090020;28;20020;-56
2023/09/28 10:04:50;;;;;;;15.00;12.15;;;;;;;;;;5089686;28;20064;-56
2023/09/28 10:07:17;;;;;;;14.50;11.10;;;;;;;;;;5090135;28;20464;-54
2023/09/28 10:09:43;;;;;;;14.70;11.60;;;;;;;;;;5090046;28;20266;-57
2023/09/28 10:12:10;;;;;;;15.23;11.93;;;;;;;;;;5089730;28;20035;-56
2023/09/28 10:14:36;;;;;;;14.52;11.05;;;;;;;;;;5071745;28;20098;-49
2023/09/28 10:17:04;;;;;;;15.23;11.75;;;;;;;;;;5071450;28;20020;-55
2023/09/28 10:19:30;;;;;;;23.08;13.32;;;;;;;;;;5089602;28;20036;-56
2023/09/28 10:21:56;;;;;;;14.82;11.98;;;;;;;;;;5089723;28;20107;-54
2023/09/28 10:24:30;;;;;;;14.80;11.90;;;;;;;;;;5089464;28;20117;-56
2023/09/28 10:26:58;;;;;;;14.70;11.75;;;;;;;;;;5089535;28;20610;-57
2023/09/28 10:29:34;;;;;;;15.00;12.10;;;;;;;;;;5089724;28;20036;-63
2023/09/28 10:32:02;;;;;;;14.85;11.90;;;;;;;;;;5089360;28;20103;-61
2023/09/28 10:34:29;;;;;;;14.80;12.00;;;;;;;;;;5089170;28;20047;-59
2023/09/28 10:37:18;;;;;;;14.77;11.75;;;;;;;;;;5089240;28;20103;-56
2023/09/28 10:39:49;;;;;;;15.00;12.00;;;;;;;;;;5076575;28;20562;-56
2023/09/28 10:42:16;;;;;;;14.60;11.48;;;;;;;;;;5089561;28;20039;-53
2023/09/28 10:44:46;;;;;;;14.70;11.77;;;;;;;;;;5089541;28;20024;-57
2023/09/28 10:47:12;;;;;;;15.10;12.52;;;;;;;;;;5089372;28;20086;-58
2023/09/28 10:49:39;;;;;;;14.60;11.43;;;;;;;;;;5089356;28;20371;-54
2023/09/28 10:52:09;;;;;;;14.70;11.63;;;;;;;;;;5089340;28;20016;-50
2023/09/28 10:54:35;;;;;;;14.90;12.10;;;;;;;;;;5089125;28;20027;-56
2023/09/28 10:57:04;;;;;;;14.60;11.48;;;;;;;;;;5071170;28;20028;-52
2023/09/28 10:59:30;;;;;;;14.90;12.20;;;;;;;;;;5070945;28;20048;-57
2023/09/28 11:01:56;;;;;;;16.55;12.90;;;;;;;;;;5088947;28;20020;-57
2023/09/28 11:04:22;;;;;;;17.10;12.10;;;;;;;;;;5071337;28;20020;-52
2023/09/28 11:06:49;;;;;;;15.15;11.48;;;;;;;;;;5071178;28;20036;-51
2023/09/28 11:09:19;;;;;;;14.50;11.13;;;;;;;;;;5088899;28;20039;-57
2023/09/28 11:11:45;;;;;;;15.70;12.25;;;;;;;;;;5089157;28;20047;-58
2023/09/28 11:14:11;;;;;;;17.10;12.57;;;;;;;;;;5088954;28;20085;-55
2023/09/28 11:16:42;;;;;;;16.23;13.05;;;;;;;;;;5090704;28;20032;-58
2023/09/28 11:19:11;;;;;;;15.25;11.90;;;;;;;;;;5075100;28;20374;-55
2023/09/28 11:21:38;;;;;;;15.10;12.48;;;;;;;;;;5092950;28;20081;-56
2023/09/28 11:24:04;;;;;;;20.20;13.15;;;;;;;;;;5113486;22;20090;-57
2023/09/28 11:26:31;;;;;;;15.35;12.77;;;;;;;;;;5094800;28;20024;-59
2023/09/28 11:28:58;;;;;;;15.00;12.40;;;;;;;;;;5095230;28;20025;-57
2023/09/28 11:31:25;;;;;;;15.00;12.52;;;;;;;;;;5094596;28;20358;-59
2023/09/28 11:33:52;;;;;;;14.70;11.65;;;;;;;;;;5094548;28;20024;-60
2023/09/28 11:36:20;;;;;;;16.00;13.02;;;;;;;;;;5075844;28;20041;-56
2023/09/28 11:38:46;;;;;;;;;;;;;;;;;;5094285;28;20157;-53
2023/09/28 11:41:13;;;;;;;15.20;12.55;;;;;;;;;;5075904;28;20369;-56
2023/09/28 11:43:46;;;;;;;15.30;12.90;;;;;;;;;;5094012;28;20048;-58
2023/09/28 11:46:13;;;;;;;15.05;12.40;;;;;;;;;;5076231;28;20140;-54
2023/09/28 11:48:39;;;;;;;16.45;13.07;;;;;;;;;;5070239;28;20025;-50
2023/09/28 11:51:06;;;;;;;14.77;11.90;;;;;;;;;;5082446;28;20035;-56
2023/09/28 11:53:33;;;;;;;14.93;12.23;;;;;;;;;;5093890;28;20028;-56
2023/09/28 11:56:02;;;;;;;15.25;12.43;;;;;;;;;;5075784;28;20016;-59
2023/09/28 11:58:28;;;;;;;15.30;12.70;;;;;;;;;;5094089;28;20024;-57
2023/09/28 12:00:53;;;;;;;15.25;12.32;;;;;;;;;;5093953;28;20028;-53
2023/09/28 12:03:20;;;;;;;15.60;12.43;;;;;;;;;;5094111;28;20103;-55
2023/09/28 12:05:47;;;;;;;15.27;12.50;;;;;;;;;;5093943;28;20024;-52
2023/09/28 12:08:13;;;;;;;19.45;13.52;;;;;;;;;;5093891;28;20020;-52
2023/09/28 12:10:39;;;;;;;15.10;12.30;;;;;;;;;;5075199;28;20020;-56
2023/09/28 12:13:06;;;;;;;14.95;12.48;;;;;;;;;;5093904;28;20115;-60
2023/09/28 12:15:32;;;;;;;16.35;13.32;;;;;;;;;;5075859;28;20036;-60
2023/09/28 12:17:58;;;;;;;15.00;12.20;;;;;;;;;;5093584;28;20039;-60
2023/09/28 12:20:24;;;;;;;15.95;13.65;;;;;;;;;;5072943;28;20396;-59
2023/09/28 12:22:51;;;;;;;16.85;12.98;;;;;;;;;;5073244;28;20048;-59
2023/09/28 12:25:18;;;;;;;15.00;12.50;;;;;;;;;;5076347;28;20036;-60
2023/09/28 12:27:44;;;;;;;14.80;11.93;;;;;;;;;;5087850;28;20474;-59
2023/09/28 12:30:16;;;;;;;16.25;12.18;;;;;;;;;;5092981;28;20351;-61
2023/09/28 12:32:44;;;;;;;15.32;12.75;;;;;;;;;;5093666;28;20020;-61
2023/09/28 12:35:10;;;;;;;14.90;12.10;;;;;;;;;;5075817;28;20028;-55
2023/09/28 12:37:38;;;;;;;14.90;12.25;;;;;;;;;;5094293;28;20507;-60
2023/09/28 12:40:04;;;;;;;15.70;12.82;;;;;;;;;;5084848;28;20098;-59
2023/09/28 12:42:30;;;;;;;14.80;12.05;;;;;;;;;;5082799;28;20024;-58
2023/09/28 12:44:58;;;;;;;17.55;13.95;;;;;;;;;;5091917;28;20078;-57
2023/09/28 12:47:25;;;;;;;15.57;12.57;;;;;;;;;;5060457;28;20012;-58
2023/09/28 12:49:51;;;;;;;15.05;12.57;;;;;;;;;;5073485;28;20024;-58
2023/09/28 12:52:17;;;;;;;15.52;13.10;;;;;;;;;;5055225;28;20024;-56
2023/09/28 12:54:45;;;;;;;15.10;12.73;;;;;;;;;;5054896;28;20036;-58
2023/09/28 12:57:11;;;;;;;17.50;14.30;;;;;;;;;;5072894;28;20016;-59
2023/09/28 12:59:37;;;;;;;16.75;13.98;;;;;;;;;;5054455;28;20024;-59
2023/09/28 13:02:05;;;;;;;15.30;12.50;;;;;;;;;;5054116;28;20032;-59
2023/09/28 13:04:32;;;;;;;20.65;13.63;;;;;;;;;;5072254;28;20158;-59
2023/09/28 13:06:58;;;;;;;14.98;12.27;;;;;;;;;;5072143;28;20037;-58
2023/09/28 13:09:27;;;;;;;17.08;13.18;;;;;;;;;;5054254;28;20040;-59
2023/09/28 13:11:53;;;;;;;16.35;13.40;;;;;;;;;;5071862;28;20025;-60
2023/09/28 13:14:25;;;;;;;15.40;13.05;;;;;;;;;;5054296;28;20025;-57
2023/09/28 13:16:51;;;;;;;16.35;13.82;;;;;;;;;;5072382;28;20027;-59
2023/09/28 13:19:18;;;;;;;15.75;12.95;;;;;;;;;;5072475;28;20044;-57
2023/09/28 13:21:47;;;;;;;15.30;13.00;;;;;;;;;;5081990;28;20462;-57
2023/09/28 13:24:13;;;;;;;15.30;12.90;;;;;;;;;;5072745;28;20032;-57
2023/09/28 13:26:39;;;;;;;15.10;12.63;;;;;;;;;;5073930;28;20077;-59
2023/09/28 13:29:05;;;;;;;15.30;12.90;;;;;;;;;;5079094;28;20028;-59
2023/09/28 13:31:31;;;;;;;15.05;12.50;;;;;;;;;;5053545;28;20085;-57
2023/09/28 13:33:59;;;;;;;15.20;12.65;;;;;;;;;;5071253;28;20025;-58
2023/09/28 13:36:25;;;;;;;15.20;12.82;;;;;;;;;;5057082;28;20028;-57
2023/09/28 13:38:51;;;;;;;15.02;12.57;;;;;;;;;;5090549;28;20043;-60
2023/09/28 13:41:17;;;;;;;16.20;13.13;;;;;;;;;;5090256;28;20070;-56
2023/09/28 13:43:44;;;;;;;16.55;13.73;;;;;;;;;;5091405;28;20024;-55
2023/09/28 13:46:10;;;;;;;15.20;12.70;;;;;;;;;;5072935;28;20024;-57
2023/09/28 13:48:36;;;;;;;15.27;12.70;;;;;;;;;;5091416;28;20020;-52
2023/09/28 13:51:02;;;;;;;15.50;12.80;;;;;;;;;;5091311;28;20020;-52
2023/09/28 13:53:29;;;;;;;15.55;13.23;;;;;;;;;;5091150;28;20484;-50
2023/09/28 13:55:56;;;;;;;15.48;12.95;;;;;;;;;;5090969;28;20024;-57
2023/09/28 13:58:22;;;;;;;15.10;12.75;;;;;;;;;;5073255;28;20507;-57
2023/09/28 14:00:50;;;;;;;15.48;13.05;;;;;;;;;;5090665;28;20497;-57
2023/09/28 14:03:16;;;;;;;15.63;13.70;;;;;;;;;;5091025;28;20031;-56
2023/09/28 14:05:42;;;;;;;14.95;12.25;;;;;;;;;;5090753;28;20077;-54
2023/09/28 14:08:10;;;;;;;15.10;12.68;;;;;;;;;;5090473;28;20119;-53
2023/09/28 14:10:37;;;;;;;15.30;12.73;;;;;;;;;;5090140;28;20046;-54
2023/09/28 14:13:03;;;;;;;15.20;12.70;;;;;;;;;;5090675;28;20069;-54
2023/09/28 14:15:29;;;;;;;16.85;13.02;;;;;;;;;;5090795;28;20070;-55
2023/09/28 14:17:55;;;;;;;16.00;13.15;;;;;;;;;;5072407;28;20055;-50